createdAt,value
2022-12-05T00:01:22.339Z,96608.91
2022-12-05T00:05:22.632Z,96609.34
2022-12-05T00:09:22.781Z,96603.25
2022-12-05T00:13:22.910Z,96623.16
2022-12-05T00:17:25.728Z,96621.69
2022-12-05T00:21:30.374Z,96564.41
2022-12-05T00:25:31.230Z,96634.47
2022-12-05T00:29:31.355Z,96637.72
2022-12-05T00:33:34.191Z,96637.25
2022-12-05T00:37:34.361Z,96628.59
2022-12-05T00:41:34.787Z,96632.41
2022-12-05T00:45:36.155Z,96619.59
2022-12-05T00:49:38.929Z,96643.13
2022-12-05T00:53:39.322Z,96647.56
2022-12-05T00:57:40.331Z,96638.63
2022-12-05T01:01:43.533Z,96641.84
2022-12-05T01:05:46.285Z,96645.31
2022-12-05T01:09:46.513Z,96575.91
2022-12-05T01:13:47.330Z,96651.38
2022-12-05T01:17:47.412Z,96645.69
2022-12-05T01:21:50.294Z,96662.13
2022-12-05T01:25:54.323Z,96667.00
2022-12-05T01:29:54.709Z,96671.84
2022-12-05T01:33:57.563Z,96645.41
2022-12-05T01:38:00.696Z,96656.31
2022-12-05T01:42:00.966Z,96667.69
2022-12-05T01:46:01.376Z,96672.66
2022-12-05T01:50:03.086Z,96689.50
2022-12-05T01:54:08.768Z,96685.59
2022-12-05T01:58:12.670Z,96643.78
2022-12-05T02:02:16.525Z,96677.06
2022-12-05T02:06:17.327Z,96714.53
2022-12-05T02:10:21.219Z,96709.19
2022-12-05T02:14:35.333Z,96714.19
2022-12-05T02:19:00.068Z,96720.31
2022-12-05T02:23:28.859Z,96701.78
2022-12-05T02:28:18.999Z,96714.44
2022-12-05T02:32:34.861Z,96720.66
2022-12-05T02:36:43.554Z,96716.50
2022-12-05T02:40:54.546Z,96735.72
2022-12-05T02:45:02.999Z,96705.03
2022-12-05T02:49:11.805Z,96726.25
2022-12-05T02:53:18.501Z,96733.66
2022-12-05T02:57:20.593Z,96720.34
2022-12-05T03:01:22.606Z,96726.13
2022-12-05T03:05:42.812Z,96745.63
2022-12-05T03:09:51.045Z,96737.88
2022-12-05T03:13:57.974Z,96745.53
2022-12-05T03:18:04.666Z,96754.19
2022-12-05T03:22:17.145Z,96737.13
2022-12-05T03:26:35.016Z,96758.31
2022-12-05T03:30:41.425Z,96757.91
2022-12-05T03:34:56.100Z,96766.69
2022-12-05T03:39:10.167Z,96752.69
2022-12-05T03:43:16.181Z,96757.66
2022-12-05T03:47:23.611Z,96762.03
2022-12-05T03:51:31.093Z,96751.72
2022-12-05T03:55:40.058Z,96728.53
2022-12-05T03:59:47.713Z,96761.69
2022-12-05T04:03:53.453Z,96772.00
2022-12-05T04:08:02.219Z,96760.72
2022-12-05T04:12:12.830Z,96766.53
2022-12-05T04:16:34.268Z,96715.19
2022-12-05T04:20:52.743Z,96742.72
2022-12-05T04:25:07.866Z,96746.72
2022-12-05T04:29:23.575Z,96764.72
2022-12-05T04:33:36.228Z,96786.63
2022-12-05T04:37:45.575Z,96812.59
2022-12-05T04:41:53.228Z,96821.09
2022-12-05T04:46:00.090Z,96824.44
2022-12-05T04:50:02.785Z,96831.63
2022-12-05T04:54:11.288Z,96825.47
2022-12-05T04:58:15.643Z,96832.81
2022-12-05T05:02:24.465Z,96828.53
2022-12-05T05:06:24.650Z,96835.06
2022-12-05T05:10:33.905Z,96810.97
2022-12-05T05:14:34.226Z,96844.94
2022-12-05T05:18:37.228Z,96851.44
2022-12-05T05:22:37.436Z,96849.44
2022-12-05T05:26:40.673Z,96853.69
2022-12-05T05:30:40.883Z,96840.19
2022-12-05T05:34:43.897Z,96836.50
2022-12-05T05:38:46.927Z,96846.84
2022-12-05T05:42:49.723Z,96860.47
2022-12-05T05:46:49.849Z,96841.59
2022-12-05T05:50:52.688Z,96833.13
2022-12-05T05:54:52.817Z,96868.50
2022-12-05T05:58:59.911Z,96856.13
2022-12-05T06:03:00.104Z,96797.72
2022-12-05T06:07:02.837Z,96861.09
2022-12-05T06:11:07.237Z,96848.41
2022-12-05T06:15:09.553Z,96899.13
2022-12-05T06:19:09.631Z,96877.28
2022-12-05T06:23:12.365Z,96903.94
2022-12-05T06:27:12.472Z,96881.78
2022-12-05T06:31:14.738Z,96896.88
2022-12-05T06:35:18.355Z,96862.38
2022-12-05T06:39:21.132Z,96899.75
2022-12-05T06:43:21.276Z,96872.09
2022-12-05T06:47:21.436Z,96906.91
2022-12-05T06:51:21.862Z,96903.19
2022-12-05T06:55:24.649Z,96906.38
2022-12-05T06:59:25.058Z,96890.84
2022-12-05T07:03:25.181Z,96854.44
2022-12-05T07:07:25.749Z,96904.66
2022-12-05T07:17:36.915Z,96622.47
2022-12-05T07:21:55.540Z,96804.56
2022-12-05T07:27:28.529Z,96709.94
2022-12-05T07:31:34.393Z,96908.22
2022-12-05T07:35:34.562Z,96967.44
2022-12-05T07:39:35.492Z,96913.75
2022-12-05T07:43:35.947Z,96931.72
2022-12-05T07:47:38.781Z,96913.03
2022-12-05T07:51:39.322Z,96965.38
2022-12-05T07:55:41.227Z,96999.94
2022-12-05T07:59:41.469Z,96994.84
2022-12-05T08:03:46.287Z,96918.81
2022-12-05T08:07:47.043Z,96936.22
2022-12-05T08:11:52.527Z,97012.81
2022-12-05T08:15:54.857Z,96967.91
2022-12-05T08:19:59.662Z,96989.09
2022-12-05T08:24:01.955Z,97035.44
2022-12-05T08:28:03.782Z,97042.28
2022-12-05T08:32:04.290Z,97035.78
2022-12-05T08:36:10.692Z,96950.16
2022-12-05T08:40:13.275Z,97039.25
2022-12-05T08:44:17.219Z,97051.00
2022-12-05T08:48:17.551Z,97055.16
2022-12-05T08:52:25.798Z,97042.03
2022-12-05T08:56:27.597Z,97045.94
2022-12-05T09:00:28.479Z,96995.03
2022-12-05T09:04:34.229Z,97003.38
2022-12-05T09:08:42.967Z,96996.00
2022-12-05T09:12:45.133Z,97013.00
2022-12-05T09:17:02.405Z,97036.06
2022-12-05T09:26:31.906Z,96804.28
2022-12-05T09:31:41.429Z,96784.59
2022-12-05T09:36:21.585Z,96879.44
2022-12-05T09:41:09.815Z,97045.34
2022-12-05T09:45:38.433Z,96966.88
2022-12-05T09:49:59.218Z,96908.91
2022-12-05T09:54:14.134Z,96819.78
2022-12-05T09:58:42.432Z,97038.41
2022-12-05T10:03:01.595Z,97071.56
2022-12-05T10:07:19.565Z,97007.03
2022-12-05T10:11:32.187Z,97081.78
2022-12-05T10:15:46.330Z,97064.38
2022-12-05T10:19:58.745Z,97063.16
2022-12-05T10:24:18.228Z,96904.13
2022-12-05T10:33:31.174Z,96933.69
2022-12-05T10:38:07.526Z,97070.66
2022-12-05T10:42:24.676Z,96878.75
2022-12-05T10:46:27.616Z,96826.78
2022-12-05T10:50:34.296Z,97084.28
2022-12-05T10:54:47.405Z,97068.56
2022-12-05T10:59:29.885Z,97081.00
2022-12-05T11:03:35.670Z,97040.72
2022-12-05T11:19:37.821Z,96925.34
2022-12-05T11:23:59.808Z,97004.88
2022-12-05T11:28:02.533Z,97063.81
2022-12-05T11:32:03.644Z,97073.88
2022-12-05T11:36:16.211Z,97062.63
2022-12-05T11:40:32.730Z,97069.50
2022-12-05T11:45:07.062Z,97060.41
2022-12-05T11:49:29.052Z,97068.84
2022-12-05T11:54:11.040Z,97070.03
2022-12-05T11:58:43.976Z,97017.78
2022-12-05T12:03:33.045Z,97065.28
2022-12-05T12:07:59.307Z,97067.97
2022-12-05T12:39:22.050Z,97010.91
2022-12-05T12:49:24.001Z,96677.97
2022-12-05T12:59:37.475Z,96780.22
2022-12-05T13:04:25.827Z,96933.53
2022-12-05T13:18:57.083Z,96964.84
2022-12-05T13:28:55.665Z,97049.38
2022-12-05T13:39:06.251Z,97059.44
2022-12-05T13:43:16.157Z,96947.56
2022-12-05T13:47:37.572Z,97006.28
2022-12-05T13:51:49.080Z,97004.31
2022-12-05T13:56:08.681Z,97045.16
2022-12-05T14:00:30.451Z,97038.38
2022-12-05T14:05:04.532Z,97024.25
2022-12-05T14:09:42.177Z,96827.59
2022-12-05T14:13:54.210Z,96860.44
2022-12-05T14:18:21.425Z,96896.69
2022-12-05T14:23:11.058Z,97012.91
2022-12-05T14:27:34.847Z,96919.00
2022-12-05T14:32:26.186Z,97085.84
2022-12-05T14:41:37.511Z,96868.78
2022-12-05T14:45:48.100Z,97056.72
2022-12-05T14:50:25.320Z,97056.19
2022-12-05T14:54:29.529Z,96850.19
2022-12-05T14:58:43.424Z,96872.66
2022-12-05T15:02:51.025Z,96872.00
2022-12-05T15:07:16.380Z,96930.28
2022-12-05T15:11:31.053Z,96749.44
2022-12-05T15:15:43.946Z,97047.31
2022-12-05T15:19:54.392Z,97037.44
2022-12-05T15:24:01.686Z,97057.03
2022-12-05T15:28:09.935Z,97060.56
2022-12-05T15:32:21.597Z,97063.41
2022-12-05T15:36:27.499Z,97068.88
2022-12-05T15:40:33.963Z,97059.59
2022-12-05T15:44:38.299Z,97076.97
2022-12-05T15:48:38.687Z,97086.81
2022-12-05T15:52:45.726Z,97082.47
2022-12-05T15:56:51.751Z,97061.97
2022-12-05T16:01:01.986Z,97084.53
2022-12-05T16:05:03.868Z,97094.59
2022-12-05T16:09:11.795Z,97102.09
2022-12-05T16:13:18.876Z,97086.19
2022-12-05T16:17:23.876Z,97089.59
2022-12-05T16:21:38.929Z,97063.69
2022-12-05T16:25:40.422Z,97101.44
2022-12-05T16:29:40.590Z,97098.69
2022-12-05T16:33:44.090Z,97079.50
2022-12-05T16:37:44.421Z,97105.19
2022-12-05T16:41:45.122Z,97097.88
2022-12-05T16:45:48.074Z,97104.53
2022-12-05T16:49:50.823Z,97110.88
2022-12-05T16:53:54.693Z,97083.69
2022-12-05T16:57:54.795Z,97104.63
2022-12-05T17:01:54.962Z,97105.88
2022-12-05T17:05:58.015Z,97066.81
2022-12-05T17:09:58.172Z,97113.88
2022-12-05T17:14:00.965Z,97106.84
2022-12-05T17:18:01.612Z,97100.09
2022-12-05T17:22:04.414Z,97113.25
2022-12-05T17:26:05.052Z,97117.63
2022-12-05T17:30:05.205Z,97112.41
2022-12-05T17:34:16.381Z,97120.03
2022-12-05T17:38:19.151Z,97098.13
2022-12-05T17:42:19.237Z,97115.31
2022-12-05T17:46:22.437Z,97108.19
2022-12-05T17:50:25.514Z,97116.28
2022-12-05T17:54:28.678Z,97108.66
2022-12-05T17:58:28.898Z,97109.91
2022-12-05T18:02:29.083Z,97105.28
2022-12-05T18:06:29.409Z,97106.41
2022-12-05T18:10:32.361Z,97107.09
2022-12-05T18:14:36.138Z,97080.53
2022-12-05T18:18:36.331Z,97096.06
2022-12-05T18:22:36.460Z,97100.09
2022-12-05T18:26:39.130Z,97110.50
2022-12-05T18:30:39.235Z,97090.75
2022-12-05T18:34:39.497Z,97049.19
2022-12-05T18:38:40.823Z,97116.00
2022-12-05T18:42:43.611Z,97117.28
2022-12-05T18:46:43.786Z,97120.75
2022-12-05T18:50:44.109Z,97118.63
2022-12-05T18:54:45.986Z,97110.44
2022-12-05T18:59:02.571Z,97106.41
2022-12-05T19:03:06.602Z,97092.94
2022-12-05T19:07:09.563Z,97117.09
2022-12-05T19:11:10.198Z,97123.50
2022-12-05T19:15:14.184Z,97096.91
2022-12-05T19:19:17.495Z,97095.19
2022-12-05T19:23:17.917Z,97128.28
2022-12-05T19:27:18.232Z,97094.22
2022-12-05T19:31:25.424Z,97128.41
2022-12-05T19:35:25.562Z,97113.72
2022-12-05T19:39:30.254Z,97126.38
2022-12-05T19:43:33.470Z,97106.38
2022-12-05T19:47:36.495Z,97124.50
2022-12-05T19:51:38.063Z,97058.25
2022-12-05T19:55:38.346Z,97124.31
2022-12-05T19:59:38.648Z,97121.50
2022-12-05T20:03:45.546Z,97117.50
2022-12-05T20:07:45.806Z,97104.09
2022-12-05T20:11:54.559Z,97097.50
2022-12-05T20:15:55.961Z,97124.56
2022-12-05T20:19:59.216Z,97100.38
2022-12-05T20:24:02.443Z,97128.50
2022-12-05T20:28:02.723Z,97123.06
2022-12-05T20:32:02.937Z,97107.81
2022-12-05T20:36:12.560Z,97098.41
2022-12-05T20:40:13.551Z,97113.56
2022-12-05T20:44:17.818Z,97113.88
2022-12-05T20:48:17.893Z,97105.78
2022-12-05T20:52:20.672Z,97051.56
2022-12-05T20:56:23.304Z,97083.88
2022-12-05T21:00:24.482Z,97104.59
2022-12-05T21:04:24.717Z,97088.44
2022-12-05T21:08:27.613Z,97067.41
2022-12-05T21:12:27.801Z,97067.41
2022-12-05T21:16:28.173Z,97061.97
2022-12-05T21:20:28.752Z,97091.84
2022-12-05T21:24:31.626Z,97074.00
2022-12-05T21:28:33.610Z,97090.81
2022-12-05T21:32:34.884Z,97092.91
2022-12-05T21:36:38.369Z,97114.75
2022-12-05T21:40:45.790Z,97092.56
2022-12-05T21:44:46.096Z,97100.75
2022-12-05T21:48:46.457Z,97134.97
2022-12-05T21:52:46.583Z,97112.56
2022-12-05T21:56:49.348Z,97125.19
2022-12-05T22:00:49.476Z,97103.19
2022-12-05T22:04:49.806Z,97100.34
2022-12-05T22:08:49.960Z,97074.00
2022-12-05T22:12:52.700Z,97062.50
2022-12-05T22:16:53.555Z,97086.03
2022-12-05T22:20:59.552Z,97107.38
2022-12-05T22:25:00.031Z,97099.75
2022-12-05T22:29:03.005Z,97111.94
2022-12-05T22:33:03.125Z,97033.88
2022-12-05T22:37:03.238Z,97105.94
2022-12-05T22:41:08.604Z,97081.34
2022-12-05T22:45:12.651Z,97072.03
2022-12-05T22:49:13.842Z,97088.63
2022-12-05T22:53:13.888Z,97092.53
2022-12-05T22:57:14.275Z,97064.31
2022-12-05T23:01:19.859Z,97094.13
2022-12-05T23:05:20.186Z,97098.69
2022-12-05T23:09:20.636Z,97093.88
2022-12-05T23:13:20.923Z,97089.25
2022-12-05T23:17:23.849Z,97095.34
2022-12-05T23:21:29.518Z,97099.88
2022-12-05T23:25:29.809Z,97093.28
2022-12-05T23:29:30.072Z,97084.16
2022-12-05T23:33:32.956Z,97087.09
2022-12-05T23:37:33.327Z,97088.69
2022-12-05T23:41:33.991Z,97108.38
2022-12-05T23:45:34.276Z,97092.25
2022-12-05T23:49:38.024Z,97062.25
2022-12-05T23:53:41.648Z,97080.69
2022-12-05T23:57:42.569Z,97077.16
